createdAt,value
2017-01-27T00:01:53.971Z,97.62
2017-01-27T00:06:50.403Z,98.10
2017-01-27T00:11:46.720Z,98.85
2017-01-27T00:16:43.123Z,98.47
2017-01-27T00:21:39.436Z,99.04
2017-01-27T00:26:35.788Z,99.79
2017-01-27T00:31:32.689Z,99.60
2017-01-27T00:36:29.110Z,99.79
2017-01-27T00:41:25.290Z,99.99
2017-01-27T00:46:22.302Z,99.98
2017-01-27T00:51:18.560Z,99.99
2017-01-27T00:56:14.806Z,99.99
2017-01-27T01:01:11.652Z,99.99
2017-01-27T01:06:08.213Z,99.98
2017-01-27T01:11:04.890Z,99.79
2017-01-27T01:16:00.943Z,99.99
2017-01-27T01:20:58.102Z,99.99
2017-01-27T01:25:54.556Z,99.60
2017-01-27T01:30:50.872Z,99.60
2017-01-27T01:35:47.254Z,99.99
2017-01-27T01:40:43.774Z,99.51
2017-01-27T01:45:40.042Z,99.98
2017-01-27T01:50:36.092Z,99.13
2017-01-27T01:55:33.085Z,99.41
2017-01-27T02:00:30.443Z,98.94
2017-01-27T02:05:26.601Z,99.79
2017-01-27T02:10:22.977Z,99.99
2017-01-27T02:15:20.538Z,99.70
2017-01-27T02:20:16.482Z,99.41
2017-01-27T02:25:12.716Z,99.22
2017-01-27T02:30:09.739Z,99.99
2017-01-27T02:35:05.967Z,99.99
2017-01-27T02:40:02.409Z,99.84
2017-01-27T02:44:58.665Z,99.93
2017-01-27T02:49:55.020Z,99.99
2017-01-27T02:54:51.260Z,99.99
2017-01-27T02:59:47.775Z,99.99
2017-01-27T03:04:44.361Z,99.99
2017-01-27T03:09:41.194Z,99.41
2017-01-27T03:14:37.666Z,99.70
2017-01-27T03:19:33.980Z,99.51
2017-01-27T03:24:30.399Z,99.51
2017-01-27T03:29:26.815Z,99.32
2017-01-27T03:34:23.091Z,99.27
2017-01-27T03:39:19.558Z,99.65
2017-01-27T03:44:15.683Z,99.27
2017-01-27T03:49:12.030Z,99.74
2017-01-27T03:54:08.150Z,99.27
2017-01-27T03:59:04.658Z,99.99
2017-01-27T04:04:00.941Z,99.93
2017-01-27T04:08:57.377Z,99.27
2017-01-27T04:13:53.922Z,98.10
2017-01-27T04:18:50.251Z,96.96
2017-01-27T04:23:46.667Z,97.15
2017-01-27T04:28:42.935Z,97.24
2017-01-27T04:33:41.091Z,97.53
2017-01-27T04:38:37.200Z,98.00
2017-01-27T04:43:33.720Z,98.52
2017-01-27T04:48:30.115Z,98.42
2017-01-27T04:53:26.392Z,98.52
2017-01-27T04:58:22.820Z,98.33
2017-01-27T05:03:18.993Z,98.33
2017-01-27T05:08:15.444Z,98.71
2017-01-27T05:13:11.525Z,98.80
2017-01-27T05:18:07.726Z,99.74
2017-01-27T05:23:04.004Z,99.55
2017-01-27T05:28:01.509Z,99.18
2017-01-27T05:32:57.432Z,99.18
2017-01-27T05:37:54.534Z,97.95
2017-01-27T05:42:50.640Z,97.48
2017-01-27T05:47:46.958Z,98.23
2017-01-27T05:52:43.360Z,98.23
2017-01-27T05:57:40.246Z,98.42
2017-01-27T06:02:36.692Z,98.52
2017-01-27T06:07:32.703Z,99.27
2017-01-27T06:12:29.630Z,98.99
2017-01-27T06:17:25.843Z,98.99
2017-01-27T06:22:22.629Z,98.99
2017-01-27T06:27:18.742Z,98.80
2017-01-27T06:32:16.077Z,98.42
2017-01-27T06:37:11.956Z,98.33
2017-01-27T06:42:08.332Z,98.42
2017-01-27T06:47:04.492Z,98.61
2017-01-27T06:52:00.496Z,97.57
2017-01-27T06:56:56.824Z,97.38
2017-01-27T07:01:53.113Z,96.49
2017-01-27T07:06:49.440Z,95.64
2017-01-27T07:11:46.430Z,96.39
2017-01-27T07:16:42.879Z,97.34
2017-01-27T07:21:40.019Z,96.68
2017-01-27T07:26:36.383Z,94.70
2017-01-27T07:31:32.753Z,94.03
2017-01-27T07:36:29.947Z,94.60
2017-01-27T07:41:26.334Z,94.79
2017-01-27T07:46:22.604Z,95.17
2017-01-27T07:51:18.878Z,95.26
2017-01-27T07:56:15.179Z,94.32
2017-01-27T08:01:11.494Z,94.41
2017-01-27T08:06:07.855Z,93.28
2017-01-27T08:11:04.169Z,93.28
2017-01-27T08:16:00.656Z,93.28
2017-01-27T08:20:57.025Z,92.57
2017-01-27T08:25:54.232Z,92.66
2017-01-27T08:30:50.542Z,91.82
2017-01-27T08:35:46.862Z,90.77
2017-01-27T08:40:43.086Z,90.59
2017-01-27T08:45:40.441Z,90.68
2017-01-27T08:50:36.478Z,90.06
2017-01-27T08:55:32.803Z,89.50
2017-01-27T09:00:29.251Z,89.40
2017-01-27T09:05:25.649Z,89.59
2017-01-27T09:10:22.209Z,89.12
2017-01-27T09:15:19.766Z,89.22
2017-01-27T09:20:15.840Z,87.98
2017-01-27T09:25:13.208Z,87.61
2017-01-27T09:30:09.438Z,87.46
2017-01-27T09:35:05.720Z,87.46
2017-01-27T09:40:02.127Z,86.90
2017-01-27T09:44:58.856Z,85.85
2017-01-27T09:49:55.236Z,86.04
2017-01-27T09:54:52.122Z,85.66
2017-01-27T09:59:49.672Z,85.61
2017-01-27T10:04:45.914Z,84.86
2017-01-27T10:09:43.501Z,83.91
2017-01-27T10:14:40.111Z,83.53
2017-01-27T10:19:36.726Z,83.34
2017-01-27T10:24:33.174Z,84.20
2017-01-27T10:29:30.202Z,82.91
2017-01-27T10:34:27.942Z,82.44
2017-01-27T10:39:24.944Z,80.55
2017-01-27T10:44:21.435Z,79.79
2017-01-27T10:49:18.004Z,78.22
2017-01-27T10:54:14.671Z,74.75
2017-01-27T10:59:12.297Z,73.05
2017-01-27T11:04:09.088Z,71.28
2017-01-27T11:09:06.169Z,70.90
2017-01-27T11:14:03.499Z,71.09
2017-01-27T11:18:59.889Z,71.38
2017-01-27T11:23:57.154Z,70.94
2017-01-27T11:28:53.815Z,70.37
2017-01-27T11:33:50.305Z,70.18
2017-01-27T11:38:46.646Z,71.47
2017-01-27T11:43:43.460Z,72.42
2017-01-27T11:48:40.020Z,71.85
2017-01-27T11:53:36.425Z,71.13
2017-01-27T11:58:33.020Z,70.75
2017-01-27T12:03:29.641Z,69.42
2017-01-27T12:08:26.201Z,68.13
2017-01-27T12:13:22.984Z,67.21
2017-01-27T12:18:19.368Z,67.56
2017-01-27T12:23:15.710Z,68.70
2017-01-27T12:28:12.120Z,69.80
2017-01-27T12:33:09.439Z,70.56
2017-01-27T12:38:05.142Z,70.94
2017-01-27T12:43:01.836Z,71.36
2017-01-27T12:47:58.274Z,71.07
2017-01-27T12:52:54.749Z,70.98
2017-01-27T12:57:51.137Z,71.26
2017-01-27T13:02:47.573Z,72.30
2017-01-27T13:07:45.206Z,72.49
2017-01-27T13:12:41.323Z,74.11
2017-01-27T13:17:40.873Z,74.68
2017-01-27T13:22:41.182Z,75.15
2017-01-27T13:27:37.398Z,75.34
2017-01-27T13:32:33.931Z,75.43
2017-01-27T13:37:31.177Z,75.53
2017-01-27T13:42:27.644Z,74.77
2017-01-27T13:47:24.004Z,74.77
2017-01-27T13:52:20.530Z,74.96
2017-01-27T13:57:16.906Z,74.96
2017-01-27T14:02:14.463Z,74.68
2017-01-27T14:07:10.663Z,74.30
2017-01-27T14:12:07.259Z,73.96
2017-01-27T14:17:04.844Z,73.96
2017-01-27T14:22:00.905Z,74.81
2017-01-27T14:26:57.403Z,75.62
2017-01-27T14:31:54.164Z,76.48
2017-01-27T14:36:50.551Z,76.67
2017-01-27T14:41:47.116Z,77.05
2017-01-27T14:46:43.987Z,77.43
2017-01-27T14:51:41.181Z,77.71
2017-01-27T14:56:37.840Z,77.43
2017-01-27T15:01:34.103Z,78.19
2017-01-27T15:06:31.393Z,77.62
2017-01-27T15:11:27.516Z,78.28
2017-01-27T15:16:24.096Z,78.85
2017-01-27T15:21:20.690Z,77.81
2017-01-27T15:26:16.760Z,76.52
2017-01-27T15:31:13.362Z,76.71
2017-01-27T15:36:10.742Z,77.81
2017-01-27T15:41:07.719Z,78.75
2017-01-27T15:46:04.923Z,79.71
2017-01-27T15:51:01.135Z,80.43
2017-01-27T16:01:00.572Z,82.98
2017-01-27T16:05:56.806Z,83.42
2017-01-27T16:10:53.022Z,85.31
2017-01-27T16:15:52.052Z,85.31
2017-01-27T16:20:48.237Z,85.88
2017-01-27T16:25:44.157Z,85.88
2017-01-27T16:30:40.586Z,83.80
2017-01-27T16:35:36.953Z,84.08
2017-01-27T16:40:33.357Z,85.31
2017-01-27T16:45:30.553Z,85.41
2017-01-27T16:50:27.190Z,85.41
2017-01-27T16:55:24.351Z,86.26
2017-01-27T17:00:21.691Z,85.13
2017-01-27T17:05:18.002Z,85.60
2017-01-27T17:10:14.569Z,84.74
2017-01-27T17:15:10.883Z,84.74
2017-01-27T17:20:07.335Z,85.31
2017-01-27T17:25:04.530Z,84.65
2017-01-27T17:30:00.474Z,84.17
2017-01-27T17:34:56.971Z,85.13
2017-01-27T17:39:53.099Z,85.60
2017-01-27T17:44:51.223Z,86.88
2017-01-27T17:49:47.094Z,87.73
2017-01-27T17:54:44.461Z,87.92
2017-01-27T17:59:41.363Z,87.07
2017-01-27T18:04:37.921Z,87.83
2017-01-27T18:09:34.287Z,89.06
2017-01-27T18:14:30.407Z,88.49
2017-01-27T18:19:27.281Z,89.44
2017-01-27T18:24:23.622Z,88.96
2017-01-27T18:29:20.792Z,89.25
2017-01-27T18:34:16.891Z,90.01
2017-01-27T18:39:13.587Z,88.87
2017-01-27T18:44:10.802Z,89.06
2017-01-27T18:49:07.766Z,88.78
2017-01-27T18:54:04.205Z,89.82
2017-01-27T18:59:00.667Z,89.44
2017-01-27T19:03:57.138Z,89.77
2017-01-27T19:08:53.404Z,90.15
2017-01-27T19:13:49.929Z,90.91
2017-01-27T19:18:47.611Z,90.81
2017-01-27T19:23:44.057Z,90.72
2017-01-27T19:28:40.562Z,90.62
2017-01-27T19:33:36.981Z,90.81
2017-01-27T19:38:33.387Z,91.10
2017-01-27T19:43:29.873Z,91.48
2017-01-27T19:48:26.093Z,89.49
2017-01-27T19:53:23.319Z,89.82
2017-01-27T19:58:19.440Z,90.15
2017-01-27T20:03:15.672Z,89.96
2017-01-27T20:08:12.691Z,90.91
2017-01-27T20:13:09.807Z,91.67
2017-01-27T20:18:06.157Z,89.01
2017-01-27T20:23:03.280Z,90.44
2017-01-27T20:27:59.497Z,91.00
2017-01-27T20:32:56.735Z,90.06
2017-01-27T20:37:53.595Z,90.06
2017-01-27T20:42:49.840Z,90.15
2017-01-27T20:47:46.742Z,90.44
2017-01-27T20:52:44.153Z,89.49
2017-01-27T20:57:40.584Z,89.87
2017-01-27T21:02:36.894Z,89.58
2017-01-27T21:07:33.388Z,89.77
2017-01-27T21:12:29.804Z,89.20
2017-01-27T21:17:25.833Z,89.20
2017-01-27T21:22:22.496Z,89.77
2017-01-27T21:27:18.847Z,89.58
2017-01-27T21:32:15.350Z,90.25
2017-01-27T21:37:11.801Z,89.96
2017-01-27T21:42:08.222Z,90.15
2017-01-27T21:47:04.563Z,89.11
2017-01-27T21:52:00.817Z,88.07
2017-01-27T21:56:57.172Z,88.54
2017-01-27T22:01:53.415Z,88.92
2017-01-27T22:06:49.840Z,89.30
2017-01-27T22:11:46.666Z,90.25
2017-01-27T22:16:43.150Z,89.96
2017-01-27T22:21:39.399Z,90.39
2017-01-27T22:26:36.002Z,90.53
2017-01-27T22:31:32.496Z,89.77
2017-01-27T22:36:29.119Z,90.34
2017-01-27T22:41:25.430Z,90.34
2017-01-27T22:46:22.028Z,90.86
2017-01-27T22:51:18.739Z,90.86
2017-01-27T22:56:15.052Z,91.62
2017-01-27T23:01:11.484Z,90.30
2017-01-27T23:06:07.858Z,89.49
2017-01-27T23:11:04.078Z,89.01
2017-01-27T23:16:01.301Z,88.92
2017-01-27T23:20:57.750Z,89.20
2017-01-27T23:25:54.415Z,89.20
2017-01-27T23:30:50.975Z,90.44
2017-01-27T23:35:47.166Z,89.58
2017-01-27T23:40:43.633Z,90.39
2017-01-27T23:45:42.331Z,91.24
2017-01-27T23:50:38.385Z,91.15
2017-01-27T23:55:34.652Z,92.10
